sensor_id;sensor_type;location;lat;lon;timestamp;pressure;altitude;pressure_sealevel;temperature;humidity
55277;BME280;41136;51.478;-2.610;2023-02-28T00:01:36;102537.79;;;6.85;85.78
55277;BME280;41136;51.478;-2.610;2023-02-28T00:04:02;102531.09;;;6.21;86.11
55277;BME280;41136;51.478;-2.610;2023-02-28T00:06:28;102535.11;;;6.31;86.25
55277;BME280;41136;51.478;-2.610;2023-02-28T00:08:53;102537.94;;;6.28;87.17
55277;BME280;41136;51.478;-2.610;2023-02-28T00:11:18;102531.64;;;6.32;86.32
55277;BME280;41136;51.478;-2.610;2023-02-28T00:13:46;102533.31;;;6.93;84.81
55277;BME280;41136;51.478;-2.610;2023-02-28T00:16:12;102535.27;;;7.20;83.93
55277;BME280;41136;51.478;-2.610;2023-02-28T00:18:35;102539.28;;;6.97;83.00
55277;BME280;41136;51.478;-2.610;2023-02-28T00:21:01;102539.68;;;6.45;84.57
55277;BME280;41136;51.478;-2.610;2023-02-28T00:23:26;102536.41;;;6.23;86.36
55277;BME280;41136;51.478;-2.610;2023-02-28T00:25:51;102541.42;;;5.93;87.15
55277;BME280;41136;51.478;-2.610;2023-02-28T00:28:17;102540.00;;;5.98;86.21
55277;BME280;41136;51.478;-2.610;2023-02-28T00:30:42;102540.41;;;5.67;88.57
55277;BME280;41136;51.478;-2.610;2023-02-28T00:33:07;102542.31;;;6.19;87.68
55277;BME280;41136;51.478;-2.610;2023-02-28T00:35:33;102545.44;;;5.99;88.26
55277;BME280;41136;51.478;-2.610;2023-02-28T00:37:58;102544.53;;;6.06;87.90
55277;BME280;41136;51.478;-2.610;2023-02-28T00:40:24;102544.30;;;5.85;88.16
55277;BME280;41136;51.478;-2.610;2023-02-28T00:42:49;102538.43;;;6.11;87.87
55277;BME280;41136;51.478;-2.610;2023-02-28T00:45:15;102539.05;;;6.08;87.37
55277;BME280;41136;51.478;-2.610;2023-02-28T00:47:40;102540.83;;;5.87;88.19
55277;BME280;41136;51.478;-2.610;2023-02-28T00:50:07;102538.74;;;5.59;89.96
55277;BME280;41136;51.478;-2.610;2023-02-28T00:52:31;102538.02;;;5.93;89.65
55277;BME280;41136;51.478;-2.610;2023-02-28T00:54:56;102541.56;;;5.73;89.20
55277;BME280;41136;51.478;-2.610;2023-02-28T00:57:22;102544.20;;;5.64;88.73
55277;BME280;41136;51.478;-2.610;2023-02-28T00:59:47;102541.94;;;5.34;89.02
55277;BME280;41136;51.478;-2.610;2023-02-28T01:02:13;102543.11;;;6.24;86.40
55277;BME280;41136;51.478;-2.610;2023-02-28T01:04:38;102552.12;;;6.89;84.04
55277;BME280;41136;51.478;-2.610;2023-02-28T01:07:03;102555.15;;;7.03;83.64
55277;BME280;41136;51.478;-2.610;2023-02-28T01:09:29;102552.38;;;6.47;84.56
55277;BME280;41136;51.478;-2.610;2023-02-28T01:11:54;102560.93;;;6.76;83.18
55277;BME280;41136;51.478;-2.610;2023-02-28T01:14:19;102559.64;;;6.49;83.63
55277;BME280;41136;51.478;-2.610;2023-02-28T01:16:45;102561.84;;;7.09;83.26
55277;BME280;41136;51.478;-2.610;2023-02-28T01:19:10;102561.52;;;6.00;86.40
55277;BME280;41136;51.478;-2.610;2023-02-28T01:21:36;102563.79;;;5.86;85.72
55277;BME280;41136;51.478;-2.610;2023-02-28T01:24:02;102555.32;;;6.46;85.85
55277;BME280;41136;51.478;-2.610;2023-02-28T01:26:26;102555.00;;;6.39;84.48
55277;BME280;41136;51.478;-2.610;2023-02-28T01:28:53;102554.19;;;6.27;83.95
55277;BME280;41136;51.478;-2.610;2023-02-28T01:31:18;102552.86;;;6.08;85.29
55277;BME280;41136;51.478;-2.610;2023-02-28T01:33:43;102551.24;;;6.10;86.20
55277;BME280;41136;51.478;-2.610;2023-02-28T01:41:16;102546.63;;;6.82;76.26
55277;BME280;41136;51.478;-2.610;2023-02-28T01:46:02;102549.39;;;6.57;75.73
55277;BME280;41136;51.478;-2.610;2023-02-28T01:48:30;102555.02;;;5.70;78.15
55277;BME280;41136;51.478;-2.610;2023-02-28T01:50:54;102548.45;;;7.07;76.67
55277;BME280;41136;51.478;-2.610;2023-02-28T01:53:23;102548.65;;;7.12;79.00
55277;BME280;41136;51.478;-2.610;2023-02-28T01:55:47;102549.20;;;6.51;79.71
55277;BME280;41136;51.478;-2.610;2023-02-28T01:58:09;102544.67;;;6.93;79.72
55277;BME280;41136;51.478;-2.610;2023-02-28T02:00:35;102543.83;;;6.20;80.81
55277;BME280;41136;51.478;-2.610;2023-02-28T02:03:06;102544.16;;;6.14;81.20
55277;BME280;41136;51.478;-2.610;2023-02-28T02:05:27;102542.95;;;6.70;80.63
55277;BME280;41136;51.478;-2.610;2023-02-28T02:07:54;102542.30;;;6.81;79.74
55277;BME280;41136;51.478;-2.610;2023-02-28T02:10:18;102542.63;;;6.52;80.86
55277;BME280;41136;51.478;-2.610;2023-02-28T02:12:54;102542.31;;;6.20;81.68
55277;BME280;41136;51.478;-2.610;2023-02-28T02:15:14;102545.98;;;6.07;81.99
55277;BME280;41136;51.478;-2.610;2023-02-28T02:17:37;102548.33;;;6.70;80.59
55277;BME280;41136;51.478;-2.610;2023-02-28T02:22:37;102551.38;;;6.52;81.11
55277;BME280;41136;51.478;-2.610;2023-02-28T02:25:00;102552.14;;;6.55;80.59
55277;BME280;41136;51.478;-2.610;2023-02-28T02:27:22;102553.35;;;6.87;80.11
55277;BME280;41136;51.478;-2.610;2023-02-28T02:29:56;102549.09;;;6.85;79.30
55277;BME280;41136;51.478;-2.610;2023-02-28T02:34:40;102549.57;;;6.90;80.08
55277;BME280;41136;51.478;-2.610;2023-02-28T02:37:04;102544.31;;;6.71;78.87
55277;BME280;41136;51.478;-2.610;2023-02-28T02:39:29;102544.56;;;6.49;79.85
55277;BME280;41136;51.478;-2.610;2023-02-28T02:41:50;102541.37;;;6.33;80.48
55277;BME280;41136;51.478;-2.610;2023-02-28T02:44:18;102544.51;;;6.74;79.20
55277;BME280;41136;51.478;-2.610;2023-02-28T02:46:42;102540.80;;;5.98;80.29
55277;BME280;41136;51.478;-2.610;2023-02-28T02:49:08;102540.41;;;6.03;81.49
55277;BME280;41136;51.478;-2.610;2023-02-28T02:51:31;102541.70;;;6.29;80.93
55277;BME280;41136;51.478;-2.610;2023-02-28T02:53:57;102542.28;;;5.64;82.84
55277;BME280;41136;51.478;-2.610;2023-02-28T02:56:25;102542.53;;;5.94;82.88
55277;BME280;41136;51.478;-2.610;2023-02-28T02:58:48;102546.25;;;5.63;86.37
55277;BME280;41136;51.478;-2.610;2023-02-28T03:01:14;102545.21;;;4.99;87.13
55277;BME280;41136;51.478;-2.610;2023-02-28T03:03:37;102546.90;;;5.40;88.10
55277;BME280;41136;51.478;-2.610;2023-02-28T03:06:03;102540.74;;;5.69;87.56
55277;BME280;41136;51.478;-2.610;2023-02-28T03:08:29;102541.44;;;5.82;86.64
55277;BME280;41136;51.478;-2.610;2023-02-28T03:10:57;102540.97;;;5.73;86.91
55277;BME280;41136;51.478;-2.610;2023-02-28T03:13:29;102539.68;;;5.93;86.61
55277;BME280;41136;51.478;-2.610;2023-02-28T03:15:54;102537.59;;;5.78;88.86
55277;BME280;41136;51.478;-2.610;2023-02-28T03:18:15;102537.87;;;5.96;88.64
55277;BME280;41136;51.478;-2.610;2023-02-28T03:20:39;102534.45;;;5.72;89.15
55277;BME280;41136;51.478;-2.610;2023-02-28T03:23:08;102533.81;;;5.40;89.05
55277;BME280;41136;51.478;-2.610;2023-02-28T03:25:32;102532.83;;;5.48;91.32
55277;BME280;41136;51.478;-2.610;2023-02-28T03:27:58;102531.98;;;6.36;89.39
55277;BME280;41136;51.478;-2.610;2023-02-28T03:30:22;102532.60;;;5.25;93.00
55277;BME280;41136;51.478;-2.610;2023-02-28T03:32:49;102531.78;;;4.22;100.00
55277;BME280;41136;51.478;-2.610;2023-02-28T03:35:09;102530.00;;;4.66;100.00
55277;BME280;41136;51.478;-2.610;2023-02-28T03:37:34;102529.96;;;4.69;100.00
55277;BME280;41136;51.478;-2.610;2023-02-28T03:40:00;102530.04;;;4.70;100.00
55277;BME280;41136;51.478;-2.610;2023-02-28T03:42:25;102529.77;;;4.53;100.00
55277;BME280;41136;51.478;-2.610;2023-02-28T03:44:52;102526.17;;;5.03;100.00
55277;BME280;41136;51.478;-2.610;2023-02-28T03:47:19;102525.94;;;4.47;100.00
55277;BME280;41136;51.478;-2.610;2023-02-28T03:49:45;102528.20;;;4.42;100.00
55277;BME280;41136;51.478;-2.610;2023-02-28T03:52:06;102530.01;;;5.09;100.00
55277;BME280;41136;51.478;-2.610;2023-02-28T03:54:33;102532.25;;;4.89;100.00
55277;BME280;41136;51.478;-2.610;2023-02-28T03:57:00;102536.82;;;5.35;100.00
55277;BME280;41136;51.478;-2.610;2023-02-28T03:59:26;102533.74;;;4.63;100.00
55277;BME280;41136;51.478;-2.610;2023-02-28T04:01:48;102532.17;;;5.89;100.00
55277;BME280;41136;51.478;-2.610;2023-02-28T04:04:13;102533.57;;;5.58;100.00
55277;BME280;41136;51.478;-2.610;2023-02-28T04:06:38;102533.14;;;5.06;100.00
55277;BME280;41136;51.478;-2.610;2023-02-28T04:09:05;102534.50;;;5.85;100.00
55277;BME280;41136;51.478;-2.610;2023-02-28T04:11:33;102534.15;;;5.81;100.00
55277;BME280;41136;51.478;-2.610;2023-02-28T04:13:53;102532.01;;;5.66;100.00
55277;BME280;41136;51.478;-2.610;2023-02-28T04:16:19;102530.90;;;6.50;100.00
55277;BME280;41136;51.478;-2.610;2023-02-28T04:18:44;102535.22;;;6.58;98.81
55277;BME280;41136;51.478;-2.610;2023-02-28T04:21:10;102531.92;;;6.51;99.13
55277;BME280;41136;51.478;-2.610;2023-02-28T04:23:35;102534.92;;;6.58;98.68
55277;BME280;41136;51.478;-2.610;2023-02-28T04:26:00;102534.53;;;6.52;98.56
55277;BME280;41136;51.478;-2.610;2023-02-28T04:28:26;102533.00;;;6.10;97.40
55277;BME280;41136;51.478;-2.610;2023-02-28T04:30:55;102539.53;;;6.16;98.36
55277;BME280;41136;51.478;-2.610;2023-02-28T04:33:17;102548.07;;;6.65;96.79
55277;BME280;41136;51.478;-2.610;2023-02-28T04:35:43;102547.72;;;6.59;95.72
55277;BME280;41136;51.478;-2.610;2023-02-28T04:38:08;102551.35;;;6.91;94.77
55277;BME280;41136;51.478;-2.610;2023-02-28T04:40:33;102557.64;;;7.05;94.16
55277;BME280;41136;51.478;-2.610;2023-02-28T04:42:58;102559.16;;;7.39;93.16
55277;BME280;41136;51.478;-2.610;2023-02-28T04:45:24;102559.84;;;6.89;93.03
55277;BME280;41136;51.478;-2.610;2023-02-28T04:47:49;102562.93;;;7.22;92.13
55277;BME280;41136;51.478;-2.610;2023-02-28T04:50:15;102563.77;;;6.54;93.81
55277;BME280;41136;51.478;-2.610;2023-02-28T04:52:40;102566.21;;;6.95;92.45
55277;BME280;41136;51.478;-2.610;2023-02-28T04:55:07;102566.90;;;7.28;90.91
55277;BME280;41136;51.478;-2.610;2023-02-28T04:57:31;102563.81;;;6.26;92.18
55277;BME280;41136;51.478;-2.610;2023-02-28T04:59:56;102563.23;;;5.80;94.71
55277;BME280;41136;51.478;-2.610;2023-02-28T05:02:22;102563.32;;;6.61;91.58
55277;BME280;41136;51.478;-2.610;2023-02-28T05:04:47;102565.42;;;6.79;91.06
55277;BME280;41136;51.478;-2.610;2023-02-28T05:07:13;102565.22;;;7.45;89.18
55277;BME280;41136;51.478;-2.610;2023-02-28T05:09:38;102564.08;;;7.33;87.50
55277;BME280;41136;51.478;-2.610;2023-02-28T05:12:04;102564.70;;;7.14;87.25
55277;BME280;41136;51.478;-2.610;2023-02-28T05:14:29;102560.42;;;7.03;88.66
55277;BME280;41136;51.478;-2.610;2023-02-28T05:16:54;102558.29;;;6.51;89.34
55277;BME280;41136;51.478;-2.610;2023-02-28T05:19:20;102562.95;;;7.00;87.15
55277;BME280;41136;51.478;-2.610;2023-02-28T05:21:51;102562.86;;;7.36;87.70
55277;BME280;41136;51.478;-2.610;2023-02-28T05:24:12;102568.05;;;7.54;86.39
55277;BME280;41136;51.478;-2.610;2023-02-28T05:26:38;102574.42;;;7.16;86.56
55277;BME280;41136;51.478;-2.610;2023-02-28T05:29:02;102568.06;;;6.55;87.86
55277;BME280;41136;51.478;-2.610;2023-02-28T05:31:27;102570.91;;;7.04;88.05
55277;BME280;41136;51.478;-2.610;2023-02-28T05:33:52;102571.92;;;7.56;87.13
55277;BME280;41136;51.478;-2.610;2023-02-28T05:36:18;102573.73;;;7.61;86.07
55277;BME280;41136;51.478;-2.610;2023-02-28T05:38:46;102575.68;;;7.65;85.19
55277;BME280;41136;51.478;-2.610;2023-02-28T05:41:10;102578.34;;;7.53;84.32
55277;BME280;41136;51.478;-2.610;2023-02-28T05:43:35;102583.22;;;7.21;85.50
55277;BME280;41136;51.478;-2.610;2023-02-28T05:46:03;102586.63;;;7.14;86.34
55277;BME280;41136;51.478;-2.610;2023-02-28T05:48:25;102595.06;;;7.19;86.78
55277;BME280;41136;51.478;-2.610;2023-02-28T05:50:50;102596.18;;;5.67;92.39
55277;BME280;41136;51.478;-2.610;2023-02-28T05:53:16;102600.91;;;4.80;100.00
55277;BME280;41136;51.478;-2.610;2023-02-28T05:55:41;102599.22;;;4.75;100.00
55277;BME280;41136;51.478;-2.610;2023-02-28T05:58:07;102598.32;;;4.44;100.00
55277;BME280;41136;51.478;-2.610;2023-02-28T06:00:32;102598.05;;;5.19;100.00
55277;BME280;41136;51.478;-2.610;2023-02-28T06:02:57;102598.01;;;5.58;100.00
55277;BME280;41136;51.478;-2.610;2023-02-28T06:05:23;102601.76;;;5.86;100.00
55277;BME280;41136;51.478;-2.610;2023-02-28T06:07:48;102596.44;;;6.08;100.00
55277;BME280;41136;51.478;-2.610;2023-02-28T06:10:14;102598.47;;;5.30;100.00
55277;BME280;41136;51.478;-2.610;2023-02-28T06:12:40;102593.06;;;5.77;100.00
55277;BME280;41136;51.478;-2.610;2023-02-28T06:15:05;102594.62;;;6.22;100.00
55277;BME280;41136;51.478;-2.610;2023-02-28T06:17:29;102593.80;;;6.24;100.00
55277;BME280;41136;51.478;-2.610;2023-02-28T06:19:55;102593.92;;;5.90;100.00
55277;BME280;41136;51.478;-2.610;2023-02-28T06:22:20;102595.93;;;5.40;100.00
55277;BME280;41136;51.478;-2.610;2023-02-28T06:24:46;102596.80;;;5.21;100.00
55277;BME280;41136;51.478;-2.610;2023-02-28T06:27:11;102593.12;;;5.56;100.00
55277;BME280;41136;51.478;-2.610;2023-02-28T06:29:37;102589.05;;;4.50;100.00
55277;BME280;41136;51.478;-2.610;2023-02-28T06:32:02;102585.49;;;4.66;100.00
55277;BME280;41136;51.478;-2.610;2023-02-28T06:34:28;102588.63;;;4.61;100.00
55277;BME280;41136;51.478;-2.610;2023-02-28T06:36:53;102594.54;;;4.78;100.00
55277;BME280;41136;51.478;-2.610;2023-02-28T06:39:19;102594.94;;;5.33;100.00
55277;BME280;41136;51.478;-2.610;2023-02-28T06:41:44;102595.35;;;5.50;100.00
55277;BME280;41136;51.478;-2.610;2023-02-28T06:44:12;102596.54;;;5.44;100.00
55277;BME280;41136;51.478;-2.610;2023-02-28T06:46:35;102590.85;;;5.89;100.00
55277;BME280;41136;51.478;-2.610;2023-02-28T06:49:00;102594.07;;;5.77;100.00
55277;BME280;41136;51.478;-2.610;2023-02-28T06:51:25;102598.52;;;5.61;100.00
55277;BME280;41136;51.478;-2.610;2023-02-28T06:53:51;102599.77;;;5.64;100.00
55277;BME280;41136;51.478;-2.610;2023-02-28T06:56:18;102597.95;;;5.19;100.00
55277;BME280;41136;51.478;-2.610;2023-02-28T06:58:46;102601.20;;;5.26;100.00
55277;BME280;41136;51.478;-2.610;2023-02-28T07:01:08;102601.80;;;5.77;100.00
55277;BME280;41136;51.478;-2.610;2023-02-28T07:03:35;102605.83;;;5.35;100.00
55277;BME280;41136;51.478;-2.610;2023-02-28T07:05:59;102605.19;;;5.82;100.00
55277;BME280;41136;51.478;-2.610;2023-02-28T07:08:24;102606.78;;;6.03;100.00
55277;BME280;41136;51.478;-2.610;2023-02-28T07:10:52;102607.91;;;5.67;100.00
55277;BME280;41136;51.478;-2.610;2023-02-28T07:13:14;102612.11;;;5.80;100.00
55277;BME280;41136;51.478;-2.610;2023-02-28T07:15:39;102609.83;;;5.65;100.00
55277;BME280;41136;51.478;-2.610;2023-02-28T07:18:05;102611.90;;;5.53;100.00
55277;BME280;41136;51.478;-2.610;2023-02-28T07:20:31;102613.92;;;5.23;100.00
55277;BME280;41136;51.478;-2.610;2023-02-28T07:22:56;102611.87;;;5.61;100.00
55277;BME280;41136;51.478;-2.610;2023-02-28T07:25:22;102609.58;;;4.69;100.00
55277;BME280;41136;51.478;-2.610;2023-02-28T07:27:48;102612.22;;;5.58;100.00
55277;BME280;41136;51.478;-2.610;2023-02-28T07:30:14;102611.99;;;4.76;100.00
55277;BME280;41136;51.478;-2.610;2023-02-28T07:32:39;102611.81;;;4.43;100.00
55277;BME280;41136;51.478;-2.610;2023-02-28T07:35:05;102609.34;;;5.18;100.00
55277;BME280;41136;51.478;-2.610;2023-02-28T07:37:29;102615.84;;;5.64;100.00
55277;BME280;41136;51.478;-2.610;2023-02-28T07:39:55;102620.35;;;5.13;100.00
55277;BME280;41136;51.478;-2.610;2023-02-28T07:42:20;102620.03;;;5.79;100.00
55277;BME280;41136;51.478;-2.610;2023-02-28T07:44:46;102625.11;;;5.91;100.00
55277;BME280;41136;51.478;-2.610;2023-02-28T07:47:11;102627.89;;;5.67;100.00
55277;BME280;41136;51.478;-2.610;2023-02-28T07:49:36;102627.22;;;6.32;100.00
55277;BME280;41136;51.478;-2.610;2023-02-28T07:52:01;102627.75;;;5.79;100.00
55277;BME280;41136;51.478;-2.610;2023-02-28T07:54:27;102626.80;;;5.23;100.00
55277;BME280;41136;51.478;-2.610;2023-02-28T07:56:52;102629.48;;;6.40;100.00
55277;BME280;41136;51.478;-2.610;2023-02-28T07:59:17;102625.85;;;6.00;100.00
55277;BME280;41136;51.478;-2.610;2023-02-28T08:01:43;102622.66;;;6.21;100.00
55277;BME280;41136;51.478;-2.610;2023-02-28T08:04:08;102627.66;;;6.04;100.00
55277;BME280;41136;51.478;-2.610;2023-02-28T08:06:34;102631.98;;;6.04;100.00
55277;BME280;41136;51.478;-2.610;2023-02-28T08:09:00;102627.30;;;6.01;100.00
55277;BME280;41136;51.478;-2.610;2023-02-28T08:11:25;102629.90;;;5.39;100.00
55277;BME280;41136;51.478;-2.610;2023-02-28T08:13:50;102629.26;;;5.75;100.00
55277;BME280;41136;51.478;-2.610;2023-02-28T08:16:16;102634.00;;;5.60;100.00
55277;BME280;41136;51.478;-2.610;2023-02-28T08:18:41;102638.22;;;4.93;100.00
55277;BME280;41136;51.478;-2.610;2023-02-28T08:21:07;102642.19;;;5.66;100.00
55277;BME280;41136;51.478;-2.610;2023-02-28T08:23:32;102647.08;;;5.85;100.00
55277;BME280;41136;51.478;-2.610;2023-02-28T08:25:57;102648.33;;;6.17;100.00
55277;BME280;41136;51.478;-2.610;2023-02-28T08:28:23;102646.74;;;6.03;100.00
55277;BME280;41136;51.478;-2.610;2023-02-28T08:30:48;102651.07;;;5.68;100.00
55277;BME280;41136;51.478;-2.610;2023-02-28T08:33:13;102651.47;;;6.27;100.00
55277;BME280;41136;51.478;-2.610;2023-02-28T08:35:39;102652.78;;;6.24;100.00
55277;BME280;41136;51.478;-2.610;2023-02-28T08:38:04;102648.80;;;6.40;100.00
55277;BME280;41136;51.478;-2.610;2023-02-28T08:40:29;102649.68;;;6.62;100.00
55277;BME280;41136;51.478;-2.610;2023-02-28T08:42:54;102651.42;;;5.48;100.00
55277;BME280;41136;51.478;-2.610;2023-02-28T08:45:20;102647.01;;;6.46;100.00
55277;BME280;41136;51.478;-2.610;2023-02-28T08:47:46;102647.14;;;6.56;100.00
55277;BME280;41136;51.478;-2.610;2023-02-28T08:50:11;102645.19;;;6.37;100.00
55277;BME280;41136;51.478;-2.610;2023-02-28T08:52:36;102652.65;;;5.48;100.00
55277;BME280;41136;51.478;-2.610;2023-02-28T08:55:02;102650.94;;;5.88;100.00
55277;BME280;41136;51.478;-2.610;2023-02-28T08:57:28;102652.71;;;6.15;100.00
55277;BME280;41136;51.478;-2.610;2023-02-28T08:59:54;102653.18;;;5.74;100.00
55277;BME280;41136;51.478;-2.610;2023-02-28T09:02:19;102652.25;;;6.02;100.00
55277;BME280;41136;51.478;-2.610;2023-02-28T09:04:45;102653.55;;;6.59;100.00
55277;BME280;41136;51.478;-2.610;2023-02-28T09:07:11;102652.22;;;5.71;100.00
55277;BME280;41136;51.478;-2.610;2023-02-28T09:09:36;102647.90;;;6.40;100.00
55277;BME280;41136;51.478;-2.610;2023-02-28T09:12:02;102648.23;;;6.45;100.00
55277;BME280;41136;51.478;-2.610;2023-02-28T09:14:28;102648.69;;;5.78;100.00
55277;BME280;41136;51.478;-2.610;2023-02-28T09:16:53;102652.59;;;6.01;100.00
55277;BME280;41136;51.478;-2.610;2023-02-28T09:19:19;102651.18;;;5.70;100.00
55277;BME280;41136;51.478;-2.610;2023-02-28T09:21:44;102652.23;;;7.21;100.00
55277;BME280;41136;51.478;-2.610;2023-02-28T09:24:10;102654.19;;;7.18;100.00
55277;BME280;41136;51.478;-2.610;2023-02-28T09:26:37;102648.32;;;6.96;100.00
55277;BME280;41136;51.478;-2.610;2023-02-28T09:29:01;102649.10;;;7.53;100.00
55277;BME280;41136;51.478;-2.610;2023-02-28T09:31:28;102644.48;;;7.76;100.00
55277;BME280;41136;51.478;-2.610;2023-02-28T09:33:54;102641.06;;;6.99;100.00
55277;BME280;41136;51.478;-2.610;2023-02-28T09:36:18;102641.93;;;7.57;100.00
55277;BME280;41136;51.478;-2.610;2023-02-28T09:38:43;102639.07;;;7.67;100.00
55277;BME280;41136;51.478;-2.610;2023-02-28T09:41:13;102636.95;;;5.96;100.00
55277;BME280;41136;51.478;-2.610;2023-02-28T09:43:37;102639.39;;;5.70;100.00
55277;BME280;41136;51.478;-2.610;2023-02-28T09:46:08;102639.51;;;6.84;100.00
55277;BME280;41136;51.478;-2.610;2023-02-28T09:48:29;102644.37;;;7.28;100.00
55277;BME280;41136;51.478;-2.610;2023-02-28T09:50:55;102642.39;;;6.18;100.00
55277;BME280;41136;51.478;-2.610;2023-02-28T09:53:21;102644.07;;;5.87;100.00
55277;BME280;41136;51.478;-2.610;2023-02-28T09:55:46;102645.08;;;5.98;100.00
55277;BME280;41136;51.478;-2.610;2023-02-28T09:58:16;102642.37;;;6.19;100.00
55277;BME280;41136;51.478;-2.610;2023-02-28T10:00:35;102638.49;;;6.24;100.00
55277;BME280;41136;51.478;-2.610;2023-02-28T10:03:04;102633.50;;;6.73;100.00
55277;BME280;41136;51.478;-2.610;2023-02-28T10:05:24;102637.58;;;7.23;100.00
55277;BME280;41136;51.478;-2.610;2023-02-28T10:07:58;102637.81;;;6.87;100.00
55277;BME280;41136;51.478;-2.610;2023-02-28T10:10:20;102637.16;;;6.60;100.00
55277;BME280;41136;51.478;-2.610;2023-02-28T10:12:42;102634.95;;;6.56;100.00
55277;BME280;41136;51.478;-2.610;2023-02-28T10:15:08;102636.98;;;6.93;100.00
55277;BME280;41136;51.478;-2.610;2023-02-28T10:17:37;102637.85;;;7.42;100.00
55277;BME280;41136;51.478;-2.610;2023-02-28T10:20:00;102635.72;;;7.22;100.00
55277;BME280;41136;51.478;-2.610;2023-02-28T10:22:25;102639.29;;;6.90;100.00
55277;BME280;41136;51.478;-2.610;2023-02-28T10:24:48;102633.47;;;6.60;100.00
55277;BME280;41136;51.478;-2.610;2023-02-28T10:27:15;102628.00;;;6.30;100.00
55277;BME280;41136;51.478;-2.610;2023-02-28T10:29:40;102622.27;;;6.22;100.00
55277;BME280;41136;51.478;-2.610;2023-02-28T10:32:03;102629.36;;;6.89;100.00
55277;BME280;41136;51.478;-2.610;2023-02-28T10:34:28;102633.51;;;7.27;100.00
55277;BME280;41136;51.478;-2.610;2023-02-28T10:36:54;102630.66;;;6.32;100.00
55277;BME280;41136;51.478;-2.610;2023-02-28T10:41:45;102627.60;;;7.66;100.00
55277;BME280;41136;51.478;-2.610;2023-02-28T10:44:19;102624.79;;;6.56;100.00
55277;BME280;41136;51.478;-2.610;2023-02-28T10:46:36;102622.88;;;6.20;100.00
55277;BME280;41136;51.478;-2.610;2023-02-28T10:49:04;102619.97;;;6.63;100.00
55277;BME280;41136;51.478;-2.610;2023-02-28T10:51:35;102620.99;;;6.76;100.00
55277;BME280;41136;51.478;-2.610;2023-02-28T10:53:53;102621.37;;;7.01;100.00
55277;BME280;41136;51.478;-2.610;2023-02-28T10:56:19;102620.88;;;7.31;100.00
55277;BME280;41136;51.478;-2.610;2023-02-28T10:58:49;102618.47;;;6.46;100.00
55277;BME280;41136;51.478;-2.610;2023-02-28T11:01:14;102621.98;;;7.00;100.00
55277;BME280;41136;51.478;-2.610;2023-02-28T11:03:35;102620.19;;;7.59;100.00
55277;BME280;41136;51.478;-2.610;2023-02-28T11:06:04;102614.49;;;6.70;100.00
55277;BME280;41136;51.478;-2.610;2023-02-28T11:08:24;102616.33;;;7.19;100.00
55277;BME280;41136;51.478;-2.610;2023-02-28T11:10:54;102612.99;;;6.53;100.00
55277;BME280;41136;51.478;-2.610;2023-02-28T11:13:19;102611.07;;;6.95;100.00
55277;BME280;41136;51.478;-2.610;2023-02-28T11:15:40;102604.97;;;6.40;100.00
55277;BME280;41136;51.478;-2.610;2023-02-28T11:18:23;102608.16;;;6.88;100.00
55277;BME280;41136;51.478;-2.610;2023-02-28T11:20:33;102604.69;;;6.82;100.00
55277;BME280;41136;51.478;-2.610;2023-02-28T11:22:58;102605.38;;;7.37;100.00
55277;BME280;41136;51.478;-2.610;2023-02-28T11:25:25;102602.47;;;8.12;100.00
55277;BME280;41136;51.478;-2.610;2023-02-28T11:27:51;102607.42;;;7.09;100.00
55277;BME280;41136;51.478;-2.610;2023-02-28T11:32:47;102602.48;;;6.39;100.00
55277;BME280;41136;51.478;-2.610;2023-02-28T11:35:17;102602.56;;;7.02;100.00
55277;BME280;41136;51.478;-2.610;2023-02-28T11:37:30;102598.39;;;7.80;100.00
55277;BME280;41136;51.478;-2.610;2023-02-28T11:39:55;102600.54;;;7.91;100.00
55277;BME280;41136;51.478;-2.610;2023-02-28T11:42:32;102598.76;;;8.34;100.00
55277;BME280;41136;51.478;-2.610;2023-02-28T11:44:57;102600.04;;;6.95;100.00
55277;BME280;41136;51.478;-2.610;2023-02-28T11:47:17;102598.85;;;7.72;100.00
55277;BME280;41136;51.478;-2.610;2023-02-28T11:49:43;102596.78;;;7.11;100.00
55277;BME280;41136;51.478;-2.610;2023-02-28T11:52:06;102592.09;;;8.14;100.00
55277;BME280;41136;51.478;-2.610;2023-02-28T11:54:38;102587.74;;;6.82;100.00
55277;BME280;41136;51.478;-2.610;2023-02-28T11:56:55;102587.72;;;7.25;100.00
55277;BME280;41136;51.478;-2.610;2023-02-28T11:59:32;102586.10;;;7.44;100.00
55277;BME280;41136;51.478;-2.610;2023-02-28T12:01:58;102577.54;;;7.82;100.00
55277;BME280;41136;51.478;-2.610;2023-02-28T12:04:17;102580.07;;;7.28;100.00
55277;BME280;41136;51.478;-2.610;2023-02-28T12:06:38;102577.17;;;8.24;100.00
55277;BME280;41136;51.478;-2.610;2023-02-28T12:09:04;102576.35;;;8.18;100.00
55277;BME280;41136;51.478;-2.610;2023-02-28T12:11:33;102573.42;;;8.24;100.00
55277;BME280;41136;51.478;-2.610;2023-02-28T12:13:57;102568.04;;;8.34;100.00
55277;BME280;41136;51.478;-2.610;2023-02-28T12:16:25;102569.18;;;8.33;100.00
55277;BME280;41136;51.478;-2.610;2023-02-28T12:18:55;102568.42;;;8.41;100.00
55277;BME280;41136;51.478;-2.610;2023-02-28T12:21:14;102568.91;;;8.39;100.00
55277;BME280;41136;51.478;-2.610;2023-02-28T12:23:43;102569.14;;;7.34;100.00
55277;BME280;41136;51.478;-2.610;2023-02-28T12:26:05;102568.40;;;7.92;100.00
55277;BME280;41136;51.478;-2.610;2023-02-28T12:28:26;102561.77;;;8.09;100.00
55277;BME280;41136;51.478;-2.610;2023-02-28T12:30:52;102557.87;;;7.98;100.00
55277;BME280;41136;51.478;-2.610;2023-02-28T12:33:14;102557.73;;;6.72;100.00
55277;BME280;41136;51.478;-2.610;2023-02-28T12:35:47;102560.84;;;7.00;100.00
55277;BME280;41136;51.478;-2.610;2023-02-28T12:38:08;102558.19;;;6.46;100.00
55277;BME280;41136;51.478;-2.610;2023-02-28T12:40:33;102562.37;;;6.97;100.00
55277;BME280;41136;51.478;-2.610;2023-02-28T12:42:58;102558.47;;;8.07;100.00
55277;BME280;41136;51.478;-2.610;2023-02-28T12:45:21;102555.40;;;7.26;100.00
55277;BME280;41136;51.478;-2.610;2023-02-28T12:47:48;102554.42;;;7.82;100.00
55277;BME280;41136;51.478;-2.610;2023-02-28T12:50:11;102551.37;;;7.58;100.00